Time;durP1;ratioP1;P1;durP2;ratioP2;P2;SDS_P1;SDS_P2;PMS_P1;PMS_P2;Temp;Humidity;BMP_temperature;BMP_pressure;BME280_temperature;BME280_humidity;BME280_pressure;Samples;Min_cycle;Max_cycle;Signal;HPM_P1;HPM_P2
2023/02/13 00:00:33;;;;;;;27.77;14.50;;;1.50;99.90;;;;;;5005139;28;20274;-59
2023/02/13 00:02:59;;;;;;;27.20;14.50;;;1.50;99.90;;;;;;5022943;28;20442;-57
2023/02/13 00:05:24;;;;;;;32.70;15.30;;;1.50;99.90;;;;;;5025789;28;20457;-59
2023/02/13 00:07:50;;;;;;;30.33;13.93;;;1.60;99.90;;;;;;5024845;28;20184;-59
2023/02/13 00:10:16;;;;;;;28.33;15.37;;;1.60;99.90;;;;;;5020616;28;20204;-57
2023/02/13 00:12:41;;;;;;;36.17;15.93;;;1.60;99.90;;;;;;5026870;28;20215;-56
2023/02/13 00:15:08;;;;;;;41.57;18.17;;;1.70;99.90;;;;;;5026320;28;20207;-59
2023/02/13 00:17:34;;;;;;;39.47;16.43;;;1.80;99.90;;;;;;5023444;28;20188;-57
2023/02/13 00:20:00;;;;;;;29.37;15.33;;;1.80;99.90;;;;;;5011412;28;20442;-57
2023/02/13 00:22:25;;;;;;;34.93;16.73;;;1.90;99.90;;;;;;5017478;28;20434;-57
2023/02/13 00:24:51;;;;;;;38.30;16.07;;;1.90;99.90;;;;;;5022986;28;20204;-59
2023/02/13 00:27:17;;;;;;;32.80;16.43;;;1.90;99.90;;;;;;5020664;28;20211;-59
2023/02/13 00:29:42;;;;;;;33.37;15.90;;;2.00;99.90;;;;;;5020380;28;20823;-59
2023/02/13 00:32:08;;;;;;;32.87;15.80;;;2.00;99.90;;;;;;5022671;28;20175;-59
2023/02/13 00:34:34;;;;;;;33.47;15.87;;;2.00;99.90;;;;;;5019590;28;20629;-57
2023/02/13 00:36:59;;;;;;;32.37;15.20;;;2.00;99.90;;;;;;5024406;28;20179;-60
2023/02/13 00:39:25;;;;;;;32.47;15.53;;;2.00;99.90;;;;;;5003673;28;20680;-59
2023/02/13 00:41:51;;;;;;;31.23;15.50;;;2.00;99.90;;;;;;5005595;28;20206;-57
2023/02/13 00:44:16;;;;;;;29.77;15.43;;;2.00;99.90;;;;;;5021331;28;20294;-59
2023/02/13 00:46:42;;;;;;;32.00;15.07;;;2.00;99.90;;;;;;5022930;28;20227;-58
2023/02/13 00:49:08;;;;;;;33.03;15.80;;;2.00;99.90;;;;;;5025912;28;20583;-60
2023/02/13 00:51:34;;;;;;;28.77;15.10;;;2.00;99.90;;;;;;5021214;28;20707;-59
2023/02/13 00:54:00;;;;;;;35.30;15.40;;;1.90;99.90;;;;;;5018962;28;20845;-59
2023/02/13 00:56:26;;;;;;;27.87;14.07;;;1.90;99.90;;;;;;5021295;28;20441;-58
2023/02/13 00:58:51;;;;;;;28.70;14.27;;;1.90;99.90;;;;;;5018798;28;20492;-58
2023/02/13 01:01:17;;;;;;;29.77;14.70;;;1.80;99.90;;;;;;5001464;28;20788;-58
2023/02/13 01:03:43;;;;;;;27.27;14.03;;;1.70;99.90;;;;;;5020385;28;20586;-58
2023/02/13 01:06:08;;;;;;;33.20;15.70;;;1.70;99.90;;;;;;5025906;28;20199;-58
2023/02/13 01:08:37;;;;;;;31.13;15.53;;;1.60;99.90;;;;;;5012833;28;20599;-59
2023/02/13 01:11:03;;;;;;;29.73;14.30;;;1.50;99.90;;;;;;5023001;28;20302;-58
2023/02/13 01:13:28;;;;;;;28.90;14.30;;;1.50;99.90;;;;;;5023264;28;20526;-58
2023/02/13 01:15:54;;;;;;;37.10;14.37;;;1.40;99.90;;;;;;5018801;28;20329;-58
2023/02/13 01:18:20;;;;;;;29.10;15.03;;;1.30;99.90;;;;;;5027183;28;20196;-57
2023/02/13 01:20:55;;;;;;;27.77;15.23;;;1.20;99.90;;;;;;5023518;28;20183;-55
2023/02/13 01:23:21;;;;;;;31.47;14.20;;;1.20;99.90;;;;;;5013426;28;20187;-59
2023/02/13 01:25:46;;;;;;;32.30;16.00;;;1.20;99.90;;;;;;5022201;28;20479;-60
2023/02/13 01:28:13;;;;;;;30.60;14.27;;;1.20;99.90;;;;;;5027075;28;20183;-58
2023/02/13 01:30:38;;;;;;;26.10;13.47;;;1.10;99.90;;;;;;5020257;28;20257;-60
2023/02/13 01:33:04;;;;;;;28.63;14.77;;;1.10;99.90;;;;;;5015749;28;20970;-56
2023/02/13 01:35:29;;;;;;;34.27;16.10;;;1.10;99.90;;;;;;5018895;28;20202;-57
2023/02/13 01:37:55;;;;;;;27.93;14.90;;;1.20;99.90;;;;;;5024830;28;20175;-56
2023/02/13 01:40:20;;;;;;;28.53;14.27;;;1.20;99.90;;;;;;5027158;28;20648;-57
2023/02/13 01:42:46;;;;;;;33.50;15.70;;;1.10;99.90;;;;;;5025528;28;20188;-56
2023/02/13 01:45:23;;;;;;;29.10;13.93;;;1.10;99.90;;;;;;5021317;28;20195;-57
2023/02/13 01:48:02;;;;;;;35.07;15.33;;;1.10;99.90;;;;;;5026516;28;20210;-54
2023/02/13 01:50:28;;;;;;;30.83;14.30;;;1.00;99.90;;;;;;5025786;28;20437;-57
2023/02/13 01:53:03;;;;;;;36.00;15.20;;;1.00;99.90;;;;;;5021044;28;20960;-56
2023/02/13 01:55:30;;;;;;;36.30;15.77;;;0.90;99.90;;;;;;5027830;28;20261;-57
2023/02/13 01:58:07;;;;;;;31.50;14.77;;;0.90;99.90;;;;;;5025188;28;20438;-62
2023/02/13 02:00:34;;;;;;;28.23;14.50;;;0.90;99.90;;;;;;5018618;28;20433;-55
2023/02/13 02:03:18;;;;;;;27.00;13.73;;;0.90;99.90;;;;;;5028350;28;20433;-56
2023/02/13 02:05:44;;;;;;;30.83;14.70;;;0.90;99.90;;;;;;5021460;28;20518;-56
2023/02/13 02:08:13;;;;;;;30.40;14.00;;;0.90;99.90;;;;;;5028299;28;20440;-57
2023/02/13 02:10:39;;;;;;;33.20;15.70;;;0.80;99.90;;;;;;5025213;28;20425;-56
2023/02/13 02:13:20;;;;;;;27.07;14.00;;;0.80;99.90;;;;;;5024813;28;20430;-58
2023/02/13 02:15:47;;;;;;;31.03;15.43;;;0.80;99.90;;;;;;5019712;28;20857;-58
2023/02/13 02:18:19;;;;;;;28.33;14.00;;;0.80;99.90;;;;;;5021803;28;20441;-59
2023/02/13 02:21:14;;;;;;;33.10;15.53;;;0.90;99.90;;;;;;5020050;28;20437;-56
2023/02/13 02:24:22;;;;;;;29.43;14.60;;;0.80;99.90;;;;;;5024575;28;21129;-58
2023/02/13 02:27:09;;;;;;;29.23;13.93;;;0.80;99.90;;;;;;4992297;28;20481;-59
2023/02/13 02:29:43;;;;;;;31.60;14.50;;;0.80;99.90;;;;;;5019962;28;20437;-57
2023/02/13 02:32:34;;;;;;;39.20;17.40;;;0.80;99.90;;;;;;5022272;28;20438;-59
2023/02/13 02:35:17;;;;;;;33.83;15.70;;;0.90;99.90;;;;;;5028715;28;20450;-59
2023/02/13 02:38:04;;;;;;;35.70;16.90;;;0.90;99.90;;;;;;5023565;28;20435;-58
2023/02/13 02:40:41;;;;;;;32.13;15.00;;;1.00;99.90;;;;;;5021892;28;20440;-59
2023/02/13 02:43:35;;;;;;;30.63;14.50;;;1.00;99.90;;;;;;5019681;28;20436;-59
2023/02/13 02:46:19;;;;;;;28.80;15.53;;;1.00;99.90;;;;;;5004796;28;20471;-59
2023/02/13 02:51:38;;;;;;;34.87;15.57;;;1.10;99.90;;;;;;5021253;28;20449;-59
2023/02/13 02:57:02;;;;;;;25.90;14.03;;;1.10;99.90;;;;;;5019441;28;20230;-57
2023/02/13 03:07:44;;;;;;;33.87;15.50;;;1.20;99.90;;;;;;5017806;28;20502;-56
2023/02/13 03:13:27;;;;;;;33.23;14.67;;;1.30;99.90;;;;;;5019756;28;20723;-58
2023/02/13 03:24:53;;;;;;;34.03;14.33;;;1.30;99.90;;;;;;5015851;28;20468;-57
2023/02/13 03:30:45;;;;;;;35.00;14.27;;;1.30;99.90;;;;;;5016050;28;20956;-60
2023/02/13 03:33:30;;;;;;;28.33;14.10;;;1.30;99.90;;;;;;5020244;28;20446;-58
2023/02/13 03:39:06;;;;;;;30.10;14.20;;;1.30;99.90;;;;;;5016657;28;20432;-58
2023/02/13 03:41:38;;;;;;;32.87;15.00;;;1.30;99.90;;;;;;5023674;28;20430;-58
2023/02/13 03:44:21;;;;;;;29.20;14.73;;;1.30;99.90;;;;;;5025696;28;20429;-57
2023/02/13 03:46:51;;;;;;;33.93;15.07;;;1.30;99.90;;;;;;5026696;28;20951;-57
2023/02/13 03:52:23;;;;;;;31.60;15.20;;;1.40;99.90;;;;;;5030287;28;20523;-58
2023/02/13 04:00:37;;;;;;;34.53;16.83;;;1.40;99.90;;;;;;5027588;28;21291;-57
2023/02/13 04:03:16;;;;;;;31.93;15.07;;;1.40;99.90;;;;;;5026220;28;20425;-57
2023/02/13 04:05:48;;;;;;;33.00;15.00;;;1.40;99.90;;;;;;5037131;28;20472;-58
2023/02/13 04:08:14;;;;;;;35.43;14.90;;;1.40;99.90;;;;;;5034752;28;20468;-58
2023/02/13 04:11:27;;;;;;;35.20;16.60;;;1.40;99.90;;;;;;5031210;28;20426;-58
2023/02/13 04:13:56;;;;;;;35.87;15.23;;;1.50;99.90;;;;;;5021804;28;20497;-58
2023/02/13 04:16:29;;;;;;;33.67;16.07;;;1.50;99.90;;;;;;5023086;28;20485;-58
2023/02/13 04:18:56;;;;;;;33.70;17.03;;;1.50;99.90;;;;;;5028208;28;20967;-58
2023/02/13 04:21:23;;;;;;;34.07;17.07;;;1.50;99.90;;;;;;5025607;28;20433;-60
2023/02/13 04:23:48;;;;;;;33.40;16.20;;;1.50;99.90;;;;;;5026833;28;21009;-58
2023/02/13 04:26:20;;;;;;;36.27;16.93;;;1.50;99.90;;;;;;5024356;28;20454;-57
2023/02/13 04:28:46;;;;;;;32.03;16.30;;;1.50;99.90;;;;;;5026362;28;20178;-58
2023/02/13 04:31:11;;;;;;;32.03;15.90;;;1.50;99.90;;;;;;5024767;28;20570;-57
2023/02/13 04:33:37;;;;;;;32.63;14.57;;;1.60;99.90;;;;;;5006139;28;20526;-58
2023/02/13 04:36:03;;;;;;;31.00;15.77;;;1.60;99.90;;;;;;5024489;28;20272;-59
2023/02/13 04:38:28;;;;;;;35.50;15.80;;;1.60;99.90;;;;;;5022626;28;20187;-59
2023/02/13 04:40:54;;;;;;;33.70;15.80;;;1.60;99.90;;;;;;5035146;28;20429;-58
2023/02/13 04:43:20;;;;;;;30.70;15.90;;;1.60;99.90;;;;;;5034339;28;20250;-59
2023/02/13 04:45:49;;;;;;;31.60;15.80;;;1.70;99.90;;;;;;5026825;28;20756;-58
2023/02/13 04:48:15;;;;;;;34.43;17.10;;;1.70;99.90;;;;;;5040059;28;20167;-57
2023/02/13 04:50:40;;;;;;;36.07;16.00;;;1.70;99.90;;;;;;5027400;28;20493;-59
2023/02/13 04:53:06;;;;;;;33.70;16.63;;;1.70;99.90;;;;;;5032638;28;20175;-59
2023/02/13 04:55:32;;;;;;;35.53;15.80;;;1.70;99.90;;;;;;5033740;28;20208;-58
2023/02/13 04:57:58;;;;;;;34.33;16.27;;;1.70;99.90;;;;;;5032440;28;20175;-58
2023/02/13 05:00:25;;;;;;;31.57;15.40;;;1.70;99.90;;;;;;5024614;28;20187;-59
2023/02/13 05:02:52;;;;;;;35.73;15.87;;;1.70;99.90;;;;;;5023250;28;20511;-58
2023/02/13 05:05:18;;;;;;;29.30;15.03;;;1.70;99.90;;;;;;5031818;28;20480;-57
2023/02/13 05:07:43;;;;;;;29.30;14.70;;;1.70;99.90;;;;;;5023353;28;20462;-58
2023/02/13 05:10:10;;;;;;;29.70;15.60;;;1.70;99.90;;;;;;5019384;28;20939;-57
2023/02/13 05:12:36;;;;;;;26.40;14.30;;;1.70;99.90;;;;;;5020821;28;20798;-58
2023/02/13 05:15:02;;;;;;;31.10;15.03;;;1.70;99.90;;;;;;5025217;28;20462;-58
2023/02/13 05:17:28;;;;;;;27.93;14.00;;;1.70;99.90;;;;;;5027543;28;20427;-57
2023/02/13 05:19:53;;;;;;;28.90;14.57;;;1.70;99.90;;;;;;5026468;28;20436;-57
2023/02/13 05:25:03;;;;;;;25.97;13.97;;;1.70;99.90;;;;;;5024152;28;20261;-58
2023/02/13 05:27:29;;;;;;;26.60;13.80;;;1.70;99.90;;;;;;5009601;28;20496;-59
2023/02/13 05:29:54;;;;;;;31.50;14.40;;;1.70;99.90;;;;;;5028511;28;20658;-58
2023/02/13 05:32:20;;;;;;;34.93;15.40;;;1.60;99.90;;;;;;5028597;28;20271;-57
2023/02/13 05:34:46;;;;;;;25.87;14.20;;;1.60;99.90;;;;;;5035708;28;20256;-57
2023/02/13 05:37:11;;;;;;;27.10;13.60;;;1.60;99.90;;;;;;5021693;28;20191;-58
2023/02/13 05:39:37;;;;;;;27.27;14.00;;;1.60;99.90;;;;;;5029962;28;20556;-59
2023/02/13 05:42:03;;;;;;;25.07;13.43;;;1.60;99.90;;;;;;5034463;28;20207;-57
2023/02/13 05:44:29;;;;;;;25.93;13.73;;;1.60;99.90;;;;;;5033008;28;20285;-59
2023/02/13 05:46:55;;;;;;;28.10;14.43;;;1.50;99.90;;;;;;5031456;28;20460;-57
2023/02/13 05:49:21;;;;;;;30.70;14.27;;;1.50;99.90;;;;;;5032361;28;20445;-57
2023/02/13 05:51:47;;;;;;;26.10;12.80;;;1.50;99.90;;;;;;5028875;28;20170;-58
2023/02/13 05:54:13;;;;;;;30.43;14.10;;;1.50;99.90;;;;;;5024145;28;20451;-58
2023/02/13 05:56:39;;;;;;;29.10;14.77;;;1.50;99.90;;;;;;5011896;28;20669;-58
2023/02/13 05:59:05;;;;;;;28.00;13.87;;;1.50;99.90;;;;;;5029127;28;20434;-58
2023/02/13 06:01:30;;;;;;;30.40;15.00;;;1.50;99.90;;;;;;5030182;28;20172;-57
2023/02/13 06:03:56;;;;;;;29.20;15.10;;;1.50;99.90;;;;;;5031097;28;20922;-58
2023/02/13 06:06:23;;;;;;;29.33;13.93;;;1.50;99.90;;;;;;5026373;28;20210;-57
2023/02/13 06:08:48;;;;;;;26.57;14.23;;;1.50;99.90;;;;;;5029175;28;20427;-58
2023/02/13 06:11:14;;;;;;;31.40;16.23;;;1.50;99.90;;;;;;5030067;28;20424;-58
2023/02/13 06:13:40;;;;;;;56.07;24.87;;;1.50;99.90;;;;;;5019083;28;20268;-57
2023/02/13 06:16:07;;;;;;;53.23;25.07;;;1.50;99.90;;;;;;5020986;28;20341;-57
2023/02/13 06:18:34;;;;;;;44.97;19.87;;;1.50;99.90;;;;;;5027525;28;20183;-56
2023/02/13 06:20:59;;;;;;;31.97;15.17;;;1.50;99.90;;;;;;5015470;28;20451;-57
2023/02/13 06:23:25;;;;;;;31.30;15.83;;;1.40;99.90;;;;;;5023160;28;20441;-58
2023/02/13 06:25:50;;;;;;;26.47;14.63;;;1.40;99.90;;;;;;5020337;28;20203;-57
2023/02/13 06:28:16;;;;;;;30.27;15.17;;;1.40;99.90;;;;;;5022429;28;20246;-58
2023/02/13 06:30:42;;;;;;;27.57;13.90;;;1.40;99.90;;;;;;5020605;28;20673;-57
2023/02/13 06:33:07;;;;;;;28.30;14.40;;;1.40;99.90;;;;;;5021718;28;20255;-58
2023/02/13 06:35:33;;;;;;;33.47;15.67;;;1.40;99.90;;;;;;5027620;28;20332;-58
2023/02/13 06:37:58;;;;;;;33.47;15.67;;;1.30;99.90;;;;;;5020239;28;20172;-57
2023/02/13 06:40:24;;;;;;;32.30;15.60;;;1.30;99.90;;;;;;5025337;28;20521;-59
2023/02/13 06:42:49;;;;;;;24.97;14.77;;;1.30;99.90;;;;;;5026019;28;20204;-58
2023/02/13 06:45:15;;;;;;;26.20;13.77;;;1.30;99.90;;;;;;5025167;28;20215;-57
2023/02/13 06:47:42;;;;;;;23.80;12.50;;;1.40;99.90;;;;;;5023136;28;20587;-59
2023/02/13 06:50:08;;;;;;;26.23;12.77;;;1.30;99.90;;;;;;5026837;28;20176;-58
2023/02/13 06:52:34;;;;;;;22.10;12.70;;;1.40;99.90;;;;;;5010318;28;21264;-58
2023/02/13 06:55:00;;;;;;;26.90;13.50;;;1.30;99.90;;;;;;5028646;28;20455;-57
2023/02/13 06:57:26;;;;;;;24.97;13.50;;;1.40;99.90;;;;;;5009377;28;20816;-59
2023/02/13 06:59:52;;;;;;;28.17;15.27;;;1.40;99.90;;;;;;5026440;28;21017;-60
2023/02/13 07:02:17;;;;;;;31.40;16.10;;;1.40;99.90;;;;;;5026270;28;20206;-56
2023/02/13 07:04:43;;;;;;;25.90;13.87;;;1.40;99.90;;;;;;5027564;28;20296;-58
2023/02/13 07:07:08;;;;;;;32.00;13.93;;;1.30;99.90;;;;;;5026620;28;20211;-57
2023/02/13 07:09:34;;;;;;;43.17;13.73;;;1.30;99.90;;;;;;5020852;28;20164;-57
2023/02/13 07:12:04;;;;;;;23.07;12.47;;;1.30;99.90;;;;;;5024269;28;20164;-58
2023/02/13 07:14:30;;;;;;;22.10;11.37;;;1.30;99.90;;;;;;5020895;28;20215;-57
2023/02/13 07:16:56;;;;;;;21.50;11.97;;;1.30;99.90;;;;;;5027225;28;20509;-57
2023/02/13 07:19:21;;;;;;;20.83;11.70;;;1.20;99.90;;;;;;5022745;28;20187;-57
2023/02/13 07:21:47;;;;;;;22.83;11.20;;;1.20;99.90;;;;;;5024681;28;20448;-59
2023/02/13 07:24:12;;;;;;;21.30;12.03;;;1.20;99.90;;;;;;5023824;28;20178;-57
2023/02/13 07:26:38;;;;;;;18.83;11.80;;;1.20;99.90;;;;;;5026808;28;20199;-57
2023/02/13 07:29:04;;;;;;;21.40;11.40;;;1.20;99.90;;;;;;5022047;28;20276;-57
2023/02/13 07:31:33;;;;;;;20.27;12.23;;;1.20;99.90;;;;;;5024447;28;20182;-59
2023/02/13 07:33:59;;;;;;;20.13;12.47;;;1.20;99.90;;;;;;5026699;28;20429;-57
2023/02/13 07:36:25;;;;;;;21.43;12.03;;;1.30;99.90;;;;;;5022283;28;20482;-58
2023/02/13 07:38:50;;;;;;;24.67;12.40;;;1.30;99.90;;;;;;5022993;28;20433;-57
2023/02/13 07:41:16;;;;;;;22.27;12.17;;;1.30;99.90;;;;;;5015430;28;20492;-57
2023/02/13 07:43:41;;;;;;;24.87;12.07;;;1.30;99.90;;;;;;5019009;28;20203;-57
2023/02/13 07:46:08;;;;;;;18.80;11.20;;;1.30;99.90;;;;;;5022393;28;20202;-57
2023/02/13 07:48:34;;;;;;;17.10;11.13;;;1.30;99.90;;;;;;5024388;28;20849;-57
2023/02/13 07:51:01;;;;;;;19.70;11.20;;;1.30;99.90;;;;;;5021160;28;20460;-57
2023/02/13 07:53:27;;;;;;;20.00;11.63;;;1.40;99.90;;;;;;5024066;28;20752;-61
2023/02/13 07:55:53;;;;;;;19.17;10.73;;;1.40;99.90;;;;;;5025934;28;20454;-58
2023/02/13 07:58:19;;;;;;;20.27;11.63;;;1.40;99.90;;;;;;5019545;28;20798;-57
2023/02/13 08:00:44;;;;;;;17.03;10.67;;;1.40;99.90;;;;;;5003435;28;20169;-60
2023/02/13 08:03:10;;;;;;;19.60;11.40;;;1.40;99.90;;;;;;5005087;28;20654;-59
2023/02/13 08:05:36;;;;;;;21.20;11.00;;;1.40;99.90;;;;;;4994526;28;20715;-58
2023/02/13 08:08:02;;;;;;;20.10;11.17;;;1.40;99.90;;;;;;5012774;28;20701;-58
2023/02/13 08:13:13;;;;;;;22.23;11.27;;;1.50;99.90;;;;;;5019413;28;20190;-58
2023/02/13 08:15:39;;;;;;;25.67;11.43;;;1.50;99.90;;;;;;5020297;28;20466;-60
2023/02/13 08:18:05;;;;;;;20.77;12.17;;;1.50;99.90;;;;;;5025198;28;20874;-57
2023/02/13 08:20:30;;;;;;;19.60;11.53;;;1.40;99.90;;;;;;5022969;28;20194;-57
2023/02/13 08:23:08;;;;;;;19.57;10.80;;;1.40;99.90;;;;;;5025072;28;20186;-58
2023/02/13 08:25:34;;;;;;;19.77;11.60;;;1.40;99.90;;;;;;5024068;28;20227;-59
2023/02/13 08:28:00;;;;;;;23.93;11.17;;;1.40;99.90;;;;;;5020510;28;20504;-58
2023/02/13 08:30:27;;;;;;;20.30;10.67;;;1.40;99.90;;;;;;5025178;28;20192;-59
2023/02/13 08:32:53;;;;;;;21.63;11.90;;;1.40;99.90;;;;;;5023530;28;22013;-56
2023/02/13 08:35:19;;;;;;;23.37;12.90;;;1.50;99.90;;;;;;5025721;28;20475;-58
2023/02/13 08:37:44;;;;;;;17.13;10.20;;;1.50;99.90;;;;;;5025978;28;20182;-59
2023/02/13 08:40:10;;;;;;;19.40;10.60;;;1.50;99.90;;;;;;5009149;28;20625;-59
2023/02/13 08:42:37;;;;;;;21.87;12.43;;;1.60;99.90;;;;;;5001088;28;20188;-59
2023/02/13 08:45:03;;;;;;;21.43;10.90;;;1.60;99.90;;;;;;5021563;28;20567;-59
2023/02/13 08:47:28;;;;;;;16.53;10.10;;;1.60;99.90;;;;;;5018121;28;20556;-60
2023/02/13 08:49:54;;;;;;;16.70;10.40;;;1.70;99.90;;;;;;5028757;28;20457;-59
2023/02/13 08:52:20;;;;;;;23.37;11.37;;;1.70;99.90;;;;;;5026355;28;20663;-60
2023/02/13 08:54:45;;;;;;;20.97;12.70;;;1.70;99.90;;;;;;5030658;28;20246;-58
2023/02/13 08:57:11;;;;;;;21.13;11.97;;;1.70;99.90;;;;;;5037535;28;20174;-57
2023/02/13 08:59:36;;;;;;;24.00;11.93;;;1.80;99.90;;;;;;5026994;28;20270;-58
2023/02/13 09:02:02;;;;;;;17.43;10.73;;;1.80;99.90;;;;;;5025793;28;20183;-59
2023/02/13 09:04:27;;;;;;;18.87;10.33;;;1.80;99.90;;;;;;5009193;28;20235;-60
2023/02/13 09:06:53;;;;;;;18.47;10.73;;;1.80;99.90;;;;;;5024577;28;20200;-58
2023/02/13 09:09:19;;;;;;;19.70;10.80;;;1.90;99.90;;;;;;5029307;28;20180;-60
2023/02/13 09:11:45;;;;;;;19.70;11.17;;;1.90;99.90;;;;;;5032966;28;20622;-59
2023/02/13 09:14:10;;;;;;;20.30;12.23;;;1.90;99.90;;;;;;5018151;28;21264;-58
2023/02/13 09:16:36;;;;;;;21.20;11.57;;;1.90;99.90;;;;;;5018296;28;20226;-60
2023/02/13 09:19:03;;;;;;;17.13;10.17;;;2.00;99.90;;;;;;5024744;28;20185;-60
2023/02/13 09:21:30;;;;;;;20.03;11.00;;;2.00;99.90;;;;;;5022415;28;20185;-59
2023/02/13 09:23:55;;;;;;;20.63;11.10;;;2.00;99.90;;;;;;5023582;28;20519;-59
2023/02/13 09:26:21;;;;;;;21.30;10.80;;;2.00;99.90;;;;;;5012414;28;20462;-59
2023/02/13 09:28:47;;;;;;;23.03;12.73;;;2.00;99.90;;;;;;5017665;28;20185;-59
2023/02/13 09:31:15;;;;;;;16.07;10.50;;;2.10;99.90;;;;;;5026628;28;20188;-59
2023/02/13 09:33:42;;;;;;;18.50;10.63;;;2.10;99.90;;;;;;5024110;28;20437;-58
2023/02/13 09:36:12;;;;;;;21.30;11.53;;;2.10;99.90;;;;;;5029696;28;20454;-61
2023/02/13 09:38:38;;;;;;;20.17;10.87;;;2.20;99.90;;;;;;5002360;28;20502;-58
2023/02/13 09:41:29;;;;;;;20.23;10.90;;;2.20;99.90;;;;;;5025153;28;20438;-60
2023/02/13 09:44:32;;;;;;;20.73;10.90;;;2.20;99.90;;;;;;5018750;28;20969;-59
2023/02/13 09:47:02;;;;;;;22.70;10.60;;;2.30;99.90;;;;;;5018625;28;20475;-60
2023/02/13 09:49:32;;;;;;;18.37;10.33;;;2.30;99.90;;;;;;5023671;28;20459;-58
2023/02/13 09:51:58;;;;;;;18.97;11.50;;;2.40;99.90;;;;;;5017393;28;20947;-59
2023/02/13 09:54:25;;;;;;;21.80;10.83;;;2.40;99.90;;;;;;5021960;28;20481;-58
2023/02/13 09:57:00;;;;;;;19.47;10.60;;;2.40;99.90;;;;;;5028077;28;20176;-58
2023/02/13 09:59:57;;;;;;;25.27;12.67;;;2.50;99.90;;;;;;5022490;28;20434;-58
2023/02/13 10:02:45;;;;;;;20.83;12.43;;;2.50;99.90;;;;;;5010200;28;20438;-58
2023/02/13 10:05:35;;;;;;;21.00;11.53;;;2.50;99.90;;;;;;4973538;28;20463;-59
2023/02/13 10:08:19;;;;;;;17.03;10.57;;;2.50;99.90;;;;;;5011796;28;20957;-58
2023/02/13 10:11:02;;;;;;;24.70;12.03;;;2.50;99.90;;;;;;5028407;28;20420;-59
2023/02/13 10:13:50;;;;;;;23.40;12.40;;;2.60;99.90;;;;;;5021870;28;20442;-59
2023/02/13 10:16:29;;;;;;;23.53;12.40;;;2.70;99.90;;;;;;5018971;28;20476;-59
2023/02/13 10:19:03;;;;;;;21.53;11.70;;;2.70;99.90;;;;;;5028837;28;20431;-59
2023/02/13 10:21:41;;;;;;;21.60;11.57;;;2.70;99.90;;;;;;5027097;28;20533;-59
2023/02/13 10:24:33;;;;;;;30.63;17.10;;;2.70;99.90;;;;;;5022296;28;20434;-58
2023/02/13 10:27:03;;;;;;;22.30;12.43;;;2.80;99.90;;;;;;5027601;28;20458;-57
2023/02/13 10:33:09;;;;;;;19.03;11.30;;;2.80;99.90;;;;;;5029357;28;20989;-58
2023/02/13 10:35:36;;;;;;;25.37;11.87;;;2.90;99.90;;;;;;5013370;28;20857;-58
2023/02/13 10:38:14;;;;;;;17.30;9.83;;;3.00;99.90;;;;;;5016232;28;20428;-58
2023/02/13 10:41:04;;;;;;;20.03;11.20;;;3.00;99.90;;;;;;5026082;28;20430;-58
2023/02/13 10:43:38;;;;;;;25.93;12.30;;;3.10;99.90;;;;;;5028782;28;20430;-62
2023/02/13 10:46:18;;;;;;;22.43;12.47;;;3.10;99.90;;;;;;5028553;28;20428;-58
2023/02/13 10:49:11;;;;;;;24.60;13.50;;;3.10;99.90;;;;;;5022634;28;20432;-63
2023/02/13 10:51:57;;;;;;;22.20;11.70;;;3.10;99.90;;;;;;5023657;28;20477;-59
2023/02/13 10:54:28;;;;;;;24.07;13.10;;;3.10;99.90;;;;;;5033328;28;20454;-59
2023/02/13 10:57:24;;;;;;;21.50;12.40;;;3.10;99.90;;;;;;5011387;28;20473;-58
2023/02/13 11:00:30;;;;;;;21.53;11.20;;;3.10;99.90;;;;;;5016982;28;21043;-60
2023/02/13 11:02:57;;;;;;;16.43;10.03;;;3.20;99.90;;;;;;5014275;28;20434;-60
2023/02/13 11:05:37;;;;;;;22.50;12.60;;;3.20;99.90;;;;;;5015906;28;20496;-60
2023/02/13 11:08:15;;;;;;;20.10;11.53;;;3.30;99.90;;;;;;5020935;28;20519;-60
2023/02/13 11:10:40;;;;;;;27.27;12.20;;;3.30;99.90;;;;;;5018465;28;20533;-61
2023/02/13 11:13:20;;;;;;;20.80;11.53;;;3.30;99.90;;;;;;5016503;28;20883;-60
2023/02/13 11:16:03;;;;;;;22.27;12.27;;;3.30;99.90;;;;;;5004245;28;20195;-61
2023/02/13 11:18:32;;;;;;;18.67;11.83;;;3.30;99.90;;;;;;5014996;28;20434;-59
2023/02/13 11:21:07;;;;;;;19.30;11.20;;;3.30;99.90;;;;;;5020788;28;20769;-59
2023/02/13 11:23:48;;;;;;;22.23;11.90;;;3.30;99.90;;;;;;5015055;28;20958;-58
2023/02/13 11:26:28;;;;;;;21.73;12.00;;;3.30;99.90;;;;;;5001139;28;20462;-59
2023/02/13 11:29:02;;;;;;;25.20;12.80;;;3.30;99.90;;;;;;5019434;28;20421;-58
2023/02/13 11:31:30;;;;;;;27.17;13.50;;;3.40;99.90;;;;;;5019371;28;20422;-58
2023/02/13 11:33:58;;;;;;;23.90;12.20;;;3.40;99.90;;;;;;4992197;28;20485;-59
2023/02/13 11:36:31;;;;;;;20.37;11.93;;;3.40;99.90;;;;;;5016182;28;20476;-59
2023/02/13 11:39:02;;;;;;;21.70;12.77;;;3.50;99.90;;;;;;5018055;28;20611;-58
2023/02/13 11:41:29;;;;;;;21.57;12.00;;;3.50;99.90;;;;;;5012738;28;20530;-58
2023/02/13 11:44:01;;;;;;;23.00;13.93;;;3.50;99.90;;;;;;4994038;28;20426;-58
2023/02/13 11:46:44;;;;;;;25.73;13.90;;;3.60;99.90;;;;;;5012192;28;20462;-60
2023/02/13 11:49:25;;;;;;;23.10;12.73;;;3.60;99.90;;;;;;5014406;28;20446;-60
2023/02/13 11:51:56;;;;;;;24.93;13.40;;;3.70;99.90;;;;;;5022260;28;21231;-56
2023/02/13 11:54:33;;;;;;;23.23;12.80;;;3.70;99.90;;;;;;5013082;28;20533;-58
2023/02/13 11:57:17;;;;;;;25.93;12.63;;;3.80;99.90;;;;;;5017536;28;20427;-56
2023/02/13 11:59:45;;;;;;;27.53;13.60;;;3.80;99.90;;;;;;5023785;28;20422;-58
2023/02/13 12:02:16;;;;;;;21.10;12.90;;;3.80;99.90;;;;;;5020192;28;20533;-58
2023/02/13 12:04:42;;;;;;;24.27;13.03;;;3.80;99.90;;;;;;5017896;28;20994;-59
2023/02/13 12:07:31;;;;;;;22.73;12.87;;;3.80;99.90;;;;;;5025428;28;20450;-59
2023/02/13 12:10:07;;;;;;;23.63;13.23;;;3.80;99.90;;;;;;5024211;28;20425;-59
2023/02/13 12:13:03;;;;;;;25.63;14.37;;;3.80;99.90;;;;;;5021500;28;20422;-58
2023/02/13 12:15:32;;;;;;;26.13;13.70;;;3.90;99.90;;;;;;5021443;28;20511;-59
2023/02/13 12:18:18;;;;;;;25.13;13.80;;;3.90;99.90;;;;;;5022606;28;20488;-59
2023/02/13 12:20:46;;;;;;;24.07;12.57;;;3.90;99.90;;;;;;5013820;28;20477;-59
2023/02/13 12:23:27;;;;;;;22.23;12.67;;;3.90;99.90;;;;;;5027759;28;20423;-59
2023/02/13 12:26:12;;;;;;;25.47;13.03;;;3.90;99.90;;;;;;5021074;28;20458;-59
2023/02/13 12:29:08;;;;;;;27.77;13.93;;;3.90;99.90;;;;;;5024206;28;21039;-59
2023/02/13 12:31:52;;;;;;;26.90;14.37;;;4.00;99.90;;;;;;5017536;28;20435;-59
2023/02/13 12:34:29;;;;;;;30.63;14.20;;;4.00;99.90;;;;;;5021123;28;20763;-60
2023/02/13 12:37:06;;;;;;;31.87;15.80;;;4.00;99.90;;;;;;5032494;28;20429;-59
2023/02/13 12:40:14;;;;;;;26.83;14.20;;;4.10;99.90;;;;;;5021932;28;20430;-58
2023/02/13 12:43:01;;;;;;;29.10;12.93;;;4.10;99.90;;;;;;5001633;28;20454;-59
2023/02/13 12:45:41;;;;;;;28.60;14.50;;;4.20;99.90;;;;;;5024401;28;20879;-59
2023/02/13 12:48:26;;;;;;;34.60;14.77;;;4.20;99.90;;;;;;5012232;28;20461;-58
2023/02/13 12:51:23;;;;;;;29.47;15.03;;;4.20;99.90;;;;;;5014223;28;20461;-60
2023/02/13 12:54:12;;;;;;;27.77;14.80;;;4.20;99.90;;;;;;5017900;28;20537;-59
2023/02/13 12:56:52;;;;;;;32.10;14.87;;;4.30;99.90;;;;;;5026328;28;20513;-59
2023/02/13 12:59:29;;;;;;;30.67;15.30;;;4.30;99.90;;;;;;5019793;28;20974;-58
2023/02/13 13:02:10;;;;;;;30.90;15.93;;;4.30;99.90;;;;;;5018215;28;20430;-59
2023/02/13 13:04:59;;;;;;;27.13;14.50;;;4.40;99.90;;;;;;4999213;28;20450;-59
2023/02/13 13:07:57;;;;;;;31.27;14.60;;;4.40;99.90;;;;;;5016892;28;20458;-58
2023/02/13 13:10:32;;;;;;;27.60;14.07;;;4.50;99.90;;;;;;5023598;28;20508;-58
2023/02/13 13:13:22;;;;;;;31.93;14.73;;;4.40;99.90;;;;;;5023725;28;21103;-58
2023/02/13 13:16:11;;;;;;;29.23;14.37;;;4.50;99.90;;;;;;5021729;28;21027;-58
2023/02/13 13:18:58;;;;;;;31.53;15.23;;;4.50;99.90;;;;;;5014688;28;21022;-59
2023/02/13 13:21:26;;;;;;;25.60;13.73;;;4.50;99.90;;;;;;5021955;28;20449;-57
2023/02/13 13:24:28;;;;;;;30.00;14.87;;;4.50;99.90;;;;;;5023802;28;20437;-60
2023/02/13 13:26:56;;;;;;;35.20;16.60;;;4.50;99.90;;;;;;5001118;28;20469;-60
2023/02/13 13:29:30;;;;;;;30.57;15.70;;;4.50;99.90;;;;;;5016383;28;20438;-58
2023/02/13 13:32:06;;;;;;;30.57;16.37;;;4.60;99.90;;;;;;5020178;28;20426;-59
2023/02/13 13:34:35;;;;;;;33.80;16.30;;;4.60;99.90;;;;;;5023389;28;20461;-58
2023/02/13 13:37:21;;;;;;;33.70;17.90;;;4.60;99.90;;;;;;5025222;28;20430;-57
2023/02/13 13:40:23;;;;;;;32.60;16.03;;;4.70;99.90;;;;;;5016574;28;20442;-58
2023/02/13 13:43:09;;;;;;;36.03;16.50;;;4.70;99.90;;;;;;5025742;28;20429;-58
2023/02/13 13:46:11;;;;;;;30.17;16.13;;;4.70;99.90;;;;;;5010271;28;20450;-59
2023/02/13 13:48:56;;;;;;;33.57;16.80;;;4.70;99.90;;;;;;5027775;28;20433;-59